メインページ
METAR-TAF:

METAR-TAF

空港 :

ムルマンスク, ロシア

緯度: 68-58N, 経度: 033-03E, 海抜: 51m

現時点の気象観測

当レポートは22分前の07:00(UTC)に作成
南/南西の風 8kt
気温 0°C
湿度 64%
気圧 980 hPa
視程10km以上
高度4400ftの雲は散在している

METAR: ULMM 240700Z 20004MPS 9999 SCT044 M00/M06 Q0980 R13/690145 NOSIG RMK QFE729

時間: 10:22 (07:22 UTC)

予報

当レポートは2時間32分前の04:50(UTC)に作成
予報は24日の 06時(UTC)から 25日の 06時(UTC)まで有効
の風 6kt、最大16ktの突風を伴う
視程10km以上
高度1100ftの千切れ雲あり
24日の 06時(UTC)から 24日の 17時(UTC)まで一時的に
南/南西の風 12kt、最大21ktの突風を伴う
視程: 4000m
高度1100ftの千切れ雲あり, 積乱雲.
弱いにわか雪, 雨
24日の 17時(UTC)から 24日の 20時(UTC)まで一時的に
南/南西の風 6kt、最大16ktの突風を伴う
視程: 1500m
高度600ftの千切れ雲あり
高度1100ftの千切れ雲あり, 積乱雲.
にわか雪
24日の 20時(UTC)から 24日の 21時(UTC)まで徐々に
西/北西の風 6kt、最大16ktの突風を伴う
24日の 21時(UTC)から 25日の 06時(UTC)まで一時的に
北/北西の風 6kt、最大16ktの突風を伴う
視程: 3100m
高度1100ftの千切れ雲あり, 積乱雲.
弱いにわか雪

TAF: ULMM 240450Z 2406/2506 18003G08MPS 9999 BKN011 TEMPO 2406/2417 20006G11MPS 4000 -SHSNRA BKN011CB TEMPO 2417/2420 20003G08MPS 1500 SHSN BKN006 BKN011CB BECMG 2420/2421 30003G08MPS TEMPO 2421/2506 33003G08MPS 3100 -SHSN BKN011CB

4,000以上の空港の気象観測と天気予報(METAR報とTAF報)

利用可能な観測所は地図上に黄色い丸と赤い丸で示す。

丸の上にカーソルを重ねると観測所名を参照できる。

次にクリックすると気象観測と天気予報を参照できる。

マップの切り替え:黒色「×」印の緑ボタンをクリックして拡大、「-」印の緑ボタンをクリックして縮小、緑色の三角印をクリックして隣りの地図に切り替え


METAR-TAF: